sensor_id;sensor_type;location;lat;lon;timestamp;P1;durP1;ratioP1;P2;durP2;ratioP2
1467;SDS011;727;48.892;9.544;2023-12-20T00:02:10;19.52;;;16.23;;
1467;SDS011;727;48.892;9.544;2023-12-20T00:04:37;20.90;;;17.40;;
1467;SDS011;727;48.892;9.544;2023-12-20T00:07:03;19.17;;;15.20;;
1467;SDS011;727;48.892;9.544;2023-12-20T00:09:30;22.73;;;16.35;;
1467;SDS011;727;48.892;9.544;2023-12-20T00:11:58;18.17;;;13.15;;
1467;SDS011;727;48.892;9.544;2023-12-20T00:14:25;16.88;;;12.30;;
1467;SDS011;727;48.892;9.544;2023-12-20T00:16:52;14.82;;;12.63;;
1467;SDS011;727;48.892;9.544;2023-12-20T00:19:18;18.88;;;14.95;;
1467;SDS011;727;48.892;9.544;2023-12-20T00:21:45;19.60;;;14.80;;
1467;SDS011;727;48.892;9.544;2023-12-20T00:24:12;16.45;;;13.13;;
1467;SDS011;727;48.892;9.544;2023-12-20T00:26:39;16.30;;;13.02;;
1467;SDS011;727;48.892;9.544;2023-12-20T00:29:07;14.13;;;10.60;;
1467;SDS011;727;48.892;9.544;2023-12-20T00:31:33;21.38;;;13.57;;
1467;SDS011;727;48.892;9.544;2023-12-20T00:34:00;16.63;;;9.95;;
1467;SDS011;727;48.892;9.544;2023-12-20T00:36:27;12.25;;;9.05;;
1467;SDS011;727;48.892;9.544;2023-12-20T00:38:54;12.57;;;8.20;;
1467;SDS011;727;48.892;9.544;2023-12-20T00:41:20;10.82;;;8.25;;
1467;SDS011;727;48.892;9.544;2023-12-20T00:43:47;18.67;;;11.52;;
1467;SDS011;727;48.892;9.544;2023-12-20T00:46:15;24.13;;;16.83;;
1467;SDS011;727;48.892;9.544;2023-12-20T00:48:42;22.25;;;15.50;;
1467;SDS011;727;48.892;9.544;2023-12-20T00:51:10;20.83;;;15.15;;
1467;SDS011;727;48.892;9.544;2023-12-20T00:53:37;20.92;;;13.55;;
1467;SDS011;727;48.892;9.544;2023-12-20T00:56:04;18.70;;;13.25;;
1467;SDS011;727;48.892;9.544;2023-12-20T00:58:31;17.92;;;12.18;;
1467;SDS011;727;48.892;9.544;2023-12-20T01:00:58;15.95;;;11.20;;
1467;SDS011;727;48.892;9.544;2023-12-20T01:03:26;11.65;;;9.18;;
1467;SDS011;727;48.892;9.544;2023-12-20T01:05:53;11.32;;;9.93;;
1467;SDS011;727;48.892;9.544;2023-12-20T01:08:19;8.70;;;7.70;;
1467;SDS011;727;48.892;9.544;2023-12-20T01:10:46;8.80;;;7.90;;
1467;SDS011;727;48.892;9.544;2023-12-20T01:13:13;7.43;;;6.68;;
1467;SDS011;727;48.892;9.544;2023-12-20T01:15:39;9.50;;;8.55;;
1467;SDS011;727;48.892;9.544;2023-12-20T01:18:06;9.95;;;7.45;;
1467;SDS011;727;48.892;9.544;2023-12-20T01:20:35;9.07;;;8.07;;
1467;SDS011;727;48.892;9.544;2023-12-20T01:23:01;7.53;;;6.70;;
1467;SDS011;727;48.892;9.544;2023-12-20T01:25:28;8.00;;;5.88;;
1467;SDS011;727;48.892;9.544;2023-12-20T01:27:55;5.55;;;4.93;;
1467;SDS011;727;48.892;9.544;2023-12-20T01:30:22;5.55;;;5.05;;
1467;SDS011;727;48.892;9.544;2023-12-20T01:32:49;6.18;;;5.68;;
1467;SDS011;727;48.892;9.544;2023-12-20T01:35:16;6.95;;;5.30;;
1467;SDS011;727;48.892;9.544;2023-12-20T01:37:44;5.85;;;5.10;;
1467;SDS011;727;48.892;9.544;2023-12-20T01:40:11;7.22;;;5.22;;
1467;SDS011;727;48.892;9.544;2023-12-20T01:42:37;6.18;;;5.57;;
1467;SDS011;727;48.892;9.544;2023-12-20T01:45:04;8.82;;;7.57;;
1467;SDS011;727;48.892;9.544;2023-12-20T01:47:32;7.20;;;6.47;;
1467;SDS011;727;48.892;9.544;2023-12-20T01:49:58;8.43;;;5.93;;
1467;SDS011;727;48.892;9.544;2023-12-20T01:52:28;7.90;;;7.05;;
1467;SDS011;727;48.892;9.544;2023-12-20T01:54:57;6.80;;;6.20;;
1467;SDS011;727;48.892;9.544;2023-12-20T01:57:27;6.57;;;5.82;;
1467;SDS011;727;48.892;9.544;2023-12-20T01:59:55;6.50;;;5.18;;
1467;SDS011;727;48.892;9.544;2023-12-20T02:02:22;4.90;;;4.50;;
1467;SDS011;727;48.892;9.544;2023-12-20T02:04:49;5.10;;;4.60;;
1467;SDS011;727;48.892;9.544;2023-12-20T02:07:16;4.78;;;4.15;;
1467;SDS011;727;48.892;9.544;2023-12-20T02:09:44;6.18;;;5.50;;
1467;SDS011;727;48.892;9.544;2023-12-20T02:12:12;9.50;;;5.85;;
1467;SDS011;727;48.892;9.544;2023-12-20T02:14:39;24.20;;;11.77;;
1467;SDS011;727;48.892;9.544;2023-12-20T02:17:06;12.32;;;7.75;;
1467;SDS011;727;48.892;9.544;2023-12-20T02:19:32;9.68;;;4.63;;
1467;SDS011;727;48.892;9.544;2023-12-20T02:22:08;8.13;;;4.97;;
1467;SDS011;727;48.892;9.544;2023-12-20T02:24:35;11.70;;;9.65;;
1467;SDS011;727;48.892;9.544;2023-12-20T02:27:02;15.10;;;9.80;;
1467;SDS011;727;48.892;9.544;2023-12-20T02:29:29;18.55;;;10.90;;
1467;SDS011;727;48.892;9.544;2023-12-20T02:31:57;17.25;;;11.70;;
1467;SDS011;727;48.892;9.544;2023-12-20T02:34:23;14.90;;;9.90;;
1467;SDS011;727;48.892;9.544;2023-12-20T02:36:50;9.18;;;5.88;;
1467;SDS011;727;48.892;9.544;2023-12-20T02:39:18;5.47;;;4.78;;
1467;SDS011;727;48.892;9.544;2023-12-20T02:41:46;6.55;;;5.63;;
1467;SDS011;727;48.892;9.544;2023-12-20T02:44:14;7.10;;;6.43;;
1467;SDS011;727;48.892;9.544;2023-12-20T02:46:40;8.85;;;7.30;;
1467;SDS011;727;48.892;9.544;2023-12-20T02:49:07;9.43;;;6.85;;
1467;SDS011;727;48.892;9.544;2023-12-20T02:51:34;8.73;;;6.93;;
1467;SDS011;727;48.892;9.544;2023-12-20T02:54:03;8.65;;;7.30;;
1467;SDS011;727;48.892;9.544;2023-12-20T02:56:31;8.23;;;7.30;;
1467;SDS011;727;48.892;9.544;2023-12-20T02:58:58;8.38;;;6.85;;
1467;SDS011;727;48.892;9.544;2023-12-20T03:01:24;9.88;;;7.10;;
1467;SDS011;727;48.892;9.544;2023-12-20T03:03:51;7.07;;;5.63;;
1467;SDS011;727;48.892;9.544;2023-12-20T03:06:18;7.50;;;6.80;;
1467;SDS011;727;48.892;9.544;2023-12-20T03:08:45;6.90;;;6.00;;
1467;SDS011;727;48.892;9.544;2023-12-20T03:11:12;5.97;;;5.38;;
1467;SDS011;727;48.892;9.544;2023-12-20T03:13:40;5.93;;;5.43;;
1467;SDS011;727;48.892;9.544;2023-12-20T03:16:10;5.35;;;4.93;;
1467;SDS011;727;48.892;9.544;2023-12-20T03:18:38;5.57;;;5.07;;
1467;SDS011;727;48.892;9.544;2023-12-20T03:21:05;6.90;;;4.03;;
1467;SDS011;727;48.892;9.544;2023-12-20T03:23:32;4.85;;;4.32;;
1467;SDS011;727;48.892;9.544;2023-12-20T03:25:59;4.22;;;3.92;;
1467;SDS011;727;48.892;9.544;2023-12-20T03:28:26;3.50;;;3.20;;
1467;SDS011;727;48.892;9.544;2023-12-20T03:30:55;3.50;;;3.20;;
1467;SDS011;727;48.892;9.544;2023-12-20T03:33:21;3.22;;;3.03;;
1467;SDS011;727;48.892;9.544;2023-12-20T03:35:48;3.72;;;3.42;;
1467;SDS011;727;48.892;9.544;2023-12-20T03:38:15;2.92;;;2.83;;
1467;SDS011;727;48.892;9.544;2023-12-20T03:40:41;3.40;;;3.00;;
1467;SDS011;727;48.892;9.544;2023-12-20T03:43:08;2.75;;;2.55;;
1467;SDS011;727;48.892;9.544;2023-12-20T03:45:35;2.75;;;2.55;;
1467;SDS011;727;48.892;9.544;2023-12-20T03:48:04;2.92;;;2.63;;
1467;SDS011;727;48.892;9.544;2023-12-20T03:50:31;2.45;;;2.22;;
1467;SDS011;727;48.892;9.544;2023-12-20T03:52:58;2.13;;;1.98;;
1467;SDS011;727;48.892;9.544;2023-12-20T03:55:24;1.60;;;1.50;;
1467;SDS011;727;48.892;9.544;2023-12-20T03:57:51;1.88;;;1.77;;
1467;SDS011;727;48.892;9.544;2023-12-20T04:00:18;1.70;;;1.60;;
1467;SDS011;727;48.892;9.544;2023-12-20T04:02:45;1.60;;;1.50;;
1467;SDS011;727;48.892;9.544;2023-12-20T04:05:13;1.60;;;1.50;;
1467;SDS011;727;48.892;9.544;2023-12-20T04:07:39;1.40;;;1.30;;
1467;SDS011;727;48.892;9.544;2023-12-20T04:10:06;1.70;;;1.60;;
1467;SDS011;727;48.892;9.544;2023-12-20T04:12:34;2.20;;;2.00;;
1467;SDS011;727;48.892;9.544;2023-12-20T04:15:00;1.38;;;1.27;;
1467;SDS011;727;48.892;9.544;2023-12-20T04:17:31;1.48;;;1.38;;
1467;SDS011;727;48.892;9.544;2023-12-20T04:19:58;1.13;;;1.05;;
1467;SDS011;727;48.892;9.544;2023-12-20T04:22:26;3.25;;;1.70;;
1467;SDS011;727;48.892;9.544;2023-12-20T04:24:53;1.10;;;1.10;;
1467;SDS011;727;48.892;9.544;2023-12-20T04:27:19;1.15;;;1.10;;
1467;SDS011;727;48.892;9.544;2023-12-20T04:29:46;1.50;;;1.40;;
1467;SDS011;727;48.892;9.544;2023-12-20T04:32:13;1.35;;;1.23;;
1467;SDS011;727;48.892;9.544;2023-12-20T04:34:39;1.23;;;1.13;;
1467;SDS011;727;48.892;9.544;2023-12-20T04:37:06;1.40;;;1.30;;
1467;SDS011;727;48.892;9.544;2023-12-20T04:39:34;1.70;;;1.30;;
1467;SDS011;727;48.892;9.544;2023-12-20T04:42:01;2.08;;;1.10;;
1467;SDS011;727;48.892;9.544;2023-12-20T04:44:27;1.48;;;1.40;;
1467;SDS011;727;48.892;9.544;2023-12-20T04:46:54;1.40;;;1.30;;
1467;SDS011;727;48.892;9.544;2023-12-20T04:49:22;1.40;;;1.30;;
1467;SDS011;727;48.892;9.544;2023-12-20T04:51:49;1.75;;;1.65;;
1467;SDS011;727;48.892;9.544;2023-12-20T04:54:15;1.27;;;1.17;;
1467;SDS011;727;48.892;9.544;2023-12-20T04:56:43;1.40;;;1.30;;
1467;SDS011;727;48.892;9.544;2023-12-20T04:59:10;1.48;;;1.38;;
1467;SDS011;727;48.892;9.544;2023-12-20T05:01:37;2.45;;;1.63;;
1467;SDS011;727;48.892;9.544;2023-12-20T05:04:04;1.30;;;1.30;;
1467;SDS011;727;48.892;9.544;2023-12-20T05:06:30;6.07;;;1.80;;
1467;SDS011;727;48.892;9.544;2023-12-20T05:08:58;2.88;;;2.10;;
1467;SDS011;727;48.892;9.544;2023-12-20T05:11:24;1.70;;;1.60;;
1467;SDS011;727;48.892;9.544;2023-12-20T05:13:52;2.58;;;1.90;;
1467;SDS011;727;48.892;9.544;2023-12-20T05:16:19;2.50;;;2.30;;
1467;SDS011;727;48.892;9.544;2023-12-20T05:18:48;2.10;;;2.00;;
1467;SDS011;727;48.892;9.544;2023-12-20T05:21:17;1.95;;;1.85;;
1467;SDS011;727;48.892;9.544;2023-12-20T05:23:44;2.10;;;2.00;;
1467;SDS011;727;48.892;9.544;2023-12-20T05:26:11;2.70;;;2.50;;
1467;SDS011;727;48.892;9.544;2023-12-20T05:28:38;13.85;;;9.57;;
1467;SDS011;727;48.892;9.544;2023-12-20T05:31:06;24.42;;;16.98;;
1467;SDS011;727;48.892;9.544;2023-12-20T05:33:33;87.45;;;51.13;;
1467;SDS011;727;48.892;9.544;2023-12-20T05:35:59;17.38;;;15.52;;
1467;SDS011;727;48.892;9.544;2023-12-20T05:38:26;17.70;;;15.55;;
1467;SDS011;727;48.892;9.544;2023-12-20T05:40:53;6.78;;;6.15;;
1467;SDS011;727;48.892;9.544;2023-12-20T05:43:20;8.90;;;8.07;;
1467;SDS011;727;48.892;9.544;2023-12-20T05:45:46;6.70;;;6.10;;
1467;SDS011;727;48.892;9.544;2023-12-20T05:48:14;3.58;;;2.78;;
1467;SDS011;727;48.892;9.544;2023-12-20T05:50:41;4.05;;;3.75;;
1467;SDS011;727;48.892;9.544;2023-12-20T05:53:08;9.10;;;7.28;;
1467;SDS011;727;48.892;9.544;2023-12-20T05:55:34;6.78;;;6.18;;
1467;SDS011;727;48.892;9.544;2023-12-20T05:58:01;5.88;;;5.35;;
1467;SDS011;727;48.892;9.544;2023-12-20T06:00:28;7.85;;;7.25;;
1467;SDS011;727;48.892;9.544;2023-12-20T06:02:56;5.50;;;5.05;;
1467;SDS011;727;48.892;9.544;2023-12-20T06:05:24;5.72;;;5.07;;
1467;SDS011;727;48.892;9.544;2023-12-20T06:07:51;4.30;;;4.00;;
1467;SDS011;727;48.892;9.544;2023-12-20T06:10:17;3.40;;;3.15;;
1467;SDS011;727;48.892;9.544;2023-12-20T06:12:44;3.70;;;3.40;;
1467;SDS011;727;48.892;9.544;2023-12-20T06:15:12;5.10;;;3.97;;
1467;SDS011;727;48.892;9.544;2023-12-20T06:17:39;4.93;;;4.50;;
1467;SDS011;727;48.892;9.544;2023-12-20T06:20:06;4.78;;;4.38;;
1467;SDS011;727;48.892;9.544;2023-12-20T06:22:35;3.25;;;3.05;;
1467;SDS011;727;48.892;9.544;2023-12-20T06:25:02;4.38;;;4.00;;
1467;SDS011;727;48.892;9.544;2023-12-20T06:27:29;4.18;;;3.85;;
1467;SDS011;727;48.892;9.544;2023-12-20T06:29:57;6.00;;;5.40;;
1467;SDS011;727;48.892;9.544;2023-12-20T06:32:24;5.80;;;5.00;;
1467;SDS011;727;48.892;9.544;2023-12-20T06:34:51;7.47;;;6.13;;
1467;SDS011;727;48.892;9.544;2023-12-20T06:37:17;7.78;;;7.07;;
1467;SDS011;727;48.892;9.544;2023-12-20T06:39:45;5.03;;;4.63;;
1467;SDS011;727;48.892;9.544;2023-12-20T06:42:12;5.60;;;5.20;;
1467;SDS011;727;48.892;9.544;2023-12-20T06:44:39;6.88;;;6.28;;
1467;SDS011;727;48.892;9.544;2023-12-20T06:47:06;7.03;;;6.53;;
1467;SDS011;727;48.892;9.544;2023-12-20T06:49:32;6.68;;;6.18;;
1467;SDS011;727;48.892;9.544;2023-12-20T06:51:59;7.30;;;6.70;;
1467;SDS011;727;48.892;9.544;2023-12-20T06:54:26;9.93;;;7.57;;
1467;SDS011;727;48.892;9.544;2023-12-20T06:56:54;7.72;;;7.07;;
1467;SDS011;727;48.892;9.544;2023-12-20T06:59:21;8.70;;;7.85;;
1467;SDS011;727;48.892;9.544;2023-12-20T07:01:47;7.65;;;6.75;;
1467;SDS011;727;48.892;9.544;2023-12-20T07:04:15;7.25;;;6.65;;
1467;SDS011;727;48.892;9.544;2023-12-20T07:06:45;5.60;;;5.20;;
1467;SDS011;727;48.892;9.544;2023-12-20T07:09:12;6.80;;;5.45;;
1467;SDS011;727;48.892;9.544;2023-12-20T07:11:39;6.05;;;5.45;;
1467;SDS011;727;48.892;9.544;2023-12-20T07:14:07;6.93;;;6.32;;
1467;SDS011;727;48.892;9.544;2023-12-20T07:16:34;8.20;;;7.50;;
1467;SDS011;727;48.892;9.544;2023-12-20T07:19:01;8.63;;;6.80;;
1467;SDS011;727;48.892;9.544;2023-12-20T07:21:28;8.30;;;7.50;;
1467;SDS011;727;48.892;9.544;2023-12-20T07:23:54;9.75;;;8.93;;
1467;SDS011;727;48.892;9.544;2023-12-20T07:26:21;8.57;;;7.85;;
1467;SDS011;727;48.892;9.544;2023-12-20T07:28:48;8.00;;;7.28;;
1467;SDS011;727;48.892;9.544;2023-12-20T07:31:16;7.72;;;7.13;;
1467;SDS011;727;48.892;9.544;2023-12-20T07:33:43;8.85;;;7.97;;
1467;SDS011;727;48.892;9.544;2023-12-20T07:36:10;7.57;;;6.88;;
1467;SDS011;727;48.892;9.544;2023-12-20T07:38:37;9.52;;;8.60;;
1467;SDS011;727;48.892;9.544;2023-12-20T07:41:04;9.82;;;8.93;;
1467;SDS011;727;48.892;9.544;2023-12-20T07:43:31;10.63;;;9.63;;
1467;SDS011;727;48.892;9.544;2023-12-20T07:46:01;12.10;;;10.90;;
1467;SDS011;727;48.892;9.544;2023-12-20T07:48:32;9.40;;;8.43;;
1467;SDS011;727;48.892;9.544;2023-12-20T07:50:58;10.98;;;9.60;;
1467;SDS011;727;48.892;9.544;2023-12-20T07:53:25;9.07;;;8.23;;
1467;SDS011;727;48.892;9.544;2023-12-20T07:55:52;11.63;;;8.90;;
1467;SDS011;727;48.892;9.544;2023-12-20T07:58:19;10.30;;;9.30;;
1467;SDS011;727;48.892;9.544;2023-12-20T08:00:47;8.00;;;7.20;;
1467;SDS011;727;48.892;9.544;2023-12-20T08:03:13;10.10;;;9.20;;
1467;SDS011;727;48.892;9.544;2023-12-20T08:05:42;10.60;;;9.70;;
1467;SDS011;727;48.892;9.544;2023-12-20T08:08:09;9.43;;;8.57;;
1467;SDS011;727;48.892;9.544;2023-12-20T08:10:35;9.82;;;8.82;;
1467;SDS011;727;48.892;9.544;2023-12-20T08:13:02;11.07;;;10.07;;
1467;SDS011;727;48.892;9.544;2023-12-20T08:15:29;16.48;;;11.52;;
1467;SDS011;727;48.892;9.544;2023-12-20T08:17:56;10.60;;;9.55;;
1467;SDS011;727;48.892;9.544;2023-12-20T08:20:23;11.00;;;9.30;;
1467;SDS011;727;48.892;9.544;2023-12-20T08:22:51;9.10;;;8.20;;
1467;SDS011;727;48.892;9.544;2023-12-20T08:25:18;7.68;;;7.00;;
1467;SDS011;727;48.892;9.544;2023-12-20T08:27:44;11.48;;;7.30;;
1467;SDS011;727;48.892;9.544;2023-12-20T08:30:11;7.07;;;6.47;;
1467;SDS011;727;48.892;9.544;2023-12-20T08:32:38;7.25;;;6.47;;
1467;SDS011;727;48.892;9.544;2023-12-20T08:35:05;8.02;;;6.85;;
1467;SDS011;727;48.892;9.544;2023-12-20T08:37:32;10.13;;;8.95;;
1467;SDS011;727;48.892;9.544;2023-12-20T08:40:00;6.97;;;6.28;;
1467;SDS011;727;48.892;9.544;2023-12-20T08:42:27;7.68;;;6.97;;
1467;SDS011;727;48.892;9.544;2023-12-20T08:44:56;8.60;;;6.70;;
1467;SDS011;727;48.892;9.544;2023-12-20T08:47:23;8.43;;;7.50;;
1467;SDS011;727;48.892;9.544;2023-12-20T08:49:50;9.73;;;8.73;;
1467;SDS011;727;48.892;9.544;2023-12-20T08:52:21;8.32;;;7.53;;
1467;SDS011;727;48.892;9.544;2023-12-20T08:54:48;10.63;;;7.93;;
1467;SDS011;727;48.892;9.544;2023-12-20T08:57:18;8.27;;;7.43;;
1467;SDS011;727;48.892;9.544;2023-12-20T08:59:45;9.80;;;8.90;;
1467;SDS011;727;48.892;9.544;2023-12-20T09:02:13;7.85;;;6.85;;
1467;SDS011;727;48.892;9.544;2023-12-20T09:04:40;7.88;;;6.68;;
1467;SDS011;727;48.892;9.544;2023-12-20T09:07:07;8.18;;;6.80;;
1467;SDS011;727;48.892;9.544;2023-12-20T09:09:46;7.93;;;7.05;;
1467;SDS011;727;48.892;9.544;2023-12-20T09:12:13;7.00;;;6.45;;
1467;SDS011;727;48.892;9.544;2023-12-20T09:14:41;6.63;;;5.28;;
1467;SDS011;727;48.892;9.544;2023-12-20T09:17:08;8.50;;;7.25;;
1467;SDS011;727;48.892;9.544;2023-12-20T09:19:36;8.02;;;6.00;;
1467;SDS011;727;48.892;9.544;2023-12-20T09:22:03;6.97;;;5.47;;
1467;SDS011;727;48.892;9.544;2023-12-20T09:24:30;6.38;;;5.18;;
1467;SDS011;727;48.892;9.544;2023-12-20T09:26:56;6.85;;;6.15;;
1467;SDS011;727;48.892;9.544;2023-12-20T09:29:23;10.80;;;7.93;;
1467;SDS011;727;48.892;9.544;2023-12-20T09:31:51;16.60;;;8.52;;
1467;SDS011;727;48.892;9.544;2023-12-20T09:34:18;4.30;;;3.90;;
1467;SDS011;727;48.892;9.544;2023-12-20T09:36:45;4.18;;;3.88;;
1467;SDS011;727;48.892;9.544;2023-12-20T09:39:12;4.57;;;4.18;;
1467;SDS011;727;48.892;9.544;2023-12-20T09:41:40;4.72;;;3.58;;
1467;SDS011;727;48.892;9.544;2023-12-20T09:44:13;3.85;;;3.50;;
1467;SDS011;727;48.892;9.544;2023-12-20T09:46:43;4.70;;;3.22;;
1467;SDS011;727;48.892;9.544;2023-12-20T09:49:12;3.75;;;3.00;;
1467;SDS011;727;48.892;9.544;2023-12-20T09:51:40;4.13;;;3.30;;
1467;SDS011;727;48.892;9.544;2023-12-20T09:54:07;3.60;;;3.03;;
1467;SDS011;727;48.892;9.544;2023-12-20T09:56:36;3.60;;;3.30;;
1467;SDS011;727;48.892;9.544;2023-12-20T09:59:03;4.20;;;3.80;;
1467;SDS011;727;48.892;9.544;2023-12-20T10:01:30;5.50;;;4.10;;
1467;SDS011;727;48.892;9.544;2023-12-20T10:03:57;3.90;;;3.50;;
1467;SDS011;727;48.892;9.544;2023-12-20T10:06:28;2.63;;;2.43;;
1467;SDS011;727;48.892;9.544;2023-12-20T10:08:57;3.30;;;3.00;;
1467;SDS011;727;48.892;9.544;2023-12-20T10:11:26;2.40;;;2.20;;
1467;SDS011;727;48.892;9.544;2023-12-20T10:13:58;3.17;;;2.97;;
1467;SDS011;727;48.892;9.544;2023-12-20T10:16:26;2.50;;;2.30;;
1467;SDS011;727;48.892;9.544;2023-12-20T10:18:52;7.70;;;2.47;;
1467;SDS011;727;48.892;9.544;2023-12-20T10:21:19;1.93;;;1.73;;
1467;SDS011;727;48.892;9.544;2023-12-20T10:23:47;4.80;;;2.07;;
1467;SDS011;727;48.892;9.544;2023-12-20T10:26:18;3.13;;;2.47;;
1467;SDS011;727;48.892;9.544;2023-12-20T10:28:46;3.20;;;2.53;;
1467;SDS011;727;48.892;9.544;2023-12-20T10:31:25;4.90;;;1.93;;
1467;SDS011;727;48.892;9.544;2023-12-20T10:33:52;2.17;;;1.97;;
1467;SDS011;727;48.892;9.544;2023-12-20T10:36:19;5.30;;;3.13;;
1467;SDS011;727;48.892;9.544;2023-12-20T10:38:48;3.57;;;2.70;;
1467;SDS011;727;48.892;9.544;2023-12-20T10:41:23;3.95;;;1.88;;
1467;SDS011;727;48.892;9.544;2023-12-20T10:44:01;5.15;;;2.70;;
1467;SDS011;727;48.892;9.544;2023-12-20T10:46:29;3.47;;;1.92;;
1467;SDS011;727;48.892;9.544;2023-12-20T10:48:57;2.38;;;1.90;;
1467;SDS011;727;48.892;9.544;2023-12-20T10:51:25;14.63;;;3.80;;
1467;SDS011;727;48.892;9.544;2023-12-20T10:53:54;8.57;;;3.55;;
1467;SDS011;727;48.892;9.544;2023-12-20T10:56:22;6.28;;;3.78;;
1467;SDS011;727;48.892;9.544;2023-12-20T10:58:50;4.43;;;2.80;;
1467;SDS011;727;48.892;9.544;2023-12-20T11:01:26;7.90;;;3.60;;
1467;SDS011;727;48.892;9.544;2023-12-20T11:03:56;5.05;;;2.50;;
1467;SDS011;727;48.892;9.544;2023-12-20T11:06:28;5.60;;;2.42;;
1467;SDS011;727;48.892;9.544;2023-12-20T11:09:03;6.13;;;1.95;;
1467;SDS011;727;48.892;9.544;2023-12-20T11:11:42;4.07;;;2.10;;
1467;SDS011;727;48.892;9.544;2023-12-20T11:14:20;6.37;;;1.87;;
1467;SDS011;727;48.892;9.544;2023-12-20T11:16:57;4.50;;;2.40;;
1467;SDS011;727;48.892;9.544;2023-12-20T11:19:31;3.07;;;1.70;;
1467;SDS011;727;48.892;9.544;2023-12-20T11:21:58;6.00;;;1.80;;
1467;SDS011;727;48.892;9.544;2023-12-20T11:24:26;7.53;;;2.20;;
1467;SDS011;727;48.892;9.544;2023-12-20T11:26:55;4.30;;;2.40;;
1467;SDS011;727;48.892;9.544;2023-12-20T11:29:29;7.40;;;3.13;;
1467;SDS011;727;48.892;9.544;2023-12-20T11:31:56;6.47;;;3.42;;
1467;SDS011;727;48.892;9.544;2023-12-20T11:34:26;3.92;;;2.28;;
1467;SDS011;727;48.892;9.544;2023-12-20T11:36:56;2.65;;;2.03;;
1467;SDS011;727;48.892;9.544;2023-12-20T11:39:24;4.05;;;1.70;;
1467;SDS011;727;48.892;9.544;2023-12-20T11:41:54;5.70;;;2.00;;
1467;SDS011;727;48.892;9.544;2023-12-20T11:44:22;3.53;;;1.25;;
1467;SDS011;727;48.892;9.544;2023-12-20T11:46:51;5.85;;;2.65;;
1467;SDS011;727;48.892;9.544;2023-12-20T11:49:19;3.75;;;2.15;;
1467;SDS011;727;48.892;9.544;2023-12-20T11:51:49;7.45;;;1.88;;
1467;SDS011;727;48.892;9.544;2023-12-20T11:54:16;7.30;;;2.00;;
1467;SDS011;727;48.892;9.544;2023-12-20T11:56:44;5.28;;;1.42;;
1467;SDS011;727;48.892;9.544;2023-12-20T11:59:11;6.63;;;1.85;;
1467;SDS011;727;48.892;9.544;2023-12-20T12:01:38;2.80;;;1.60;;
1467;SDS011;727;48.892;9.544;2023-12-20T12:04:05;2.88;;;1.65;;
1467;SDS011;727;48.892;9.544;2023-12-20T12:06:32;4.82;;;2.13;;
1467;SDS011;727;48.892;9.544;2023-12-20T12:08:59;2.20;;;2.00;;
1467;SDS011;727;48.892;9.544;2023-12-20T12:11:27;4.72;;;1.83;;
1467;SDS011;727;48.892;9.544;2023-12-20T12:13:55;3.03;;;1.40;;
1467;SDS011;727;48.892;9.544;2023-12-20T12:16:22;5.85;;;3.10;;
1467;SDS011;727;48.892;9.544;2023-12-20T12:18:54;4.75;;;3.63;;
1467;SDS011;727;48.892;9.544;2023-12-20T12:21:22;5.75;;;3.10;;
1467;SDS011;727;48.892;9.544;2023-12-20T12:23:49;5.43;;;3.20;;
1467;SDS011;727;48.892;9.544;2023-12-20T12:26:16;5.53;;;2.42;;
1467;SDS011;727;48.892;9.544;2023-12-20T12:28:43;4.65;;;3.30;;
1467;SDS011;727;48.892;9.544;2023-12-20T12:31:14;9.18;;;4.00;;
1467;SDS011;727;48.892;9.544;2023-12-20T12:33:41;3.28;;;2.28;;
1467;SDS011;727;48.892;9.544;2023-12-20T12:36:09;5.70;;;2.78;;
1467;SDS011;727;48.892;9.544;2023-12-20T12:38:36;13.02;;;3.58;;
1467;SDS011;727;48.892;9.544;2023-12-20T12:41:03;7.30;;;3.55;;
1467;SDS011;727;48.892;9.544;2023-12-20T12:43:32;5.70;;;3.22;;
1467;SDS011;727;48.892;9.544;2023-12-20T12:45:58;7.60;;;3.90;;
1467;SDS011;727;48.892;9.544;2023-12-20T12:48:27;7.60;;;3.30;;
1467;SDS011;727;48.892;9.544;2023-12-20T12:50:54;8.90;;;3.67;;
1467;SDS011;727;48.892;9.544;2023-12-20T12:53:24;6.88;;;3.00;;
1467;SDS011;727;48.892;9.544;2023-12-20T12:55:51;9.75;;;6.40;;
1467;SDS011;727;48.892;9.544;2023-12-20T12:58:18;6.40;;;4.95;;
1467;SDS011;727;48.892;9.544;2023-12-20T13:00:45;11.73;;;6.20;;
1467;SDS011;727;48.892;9.544;2023-12-20T13:03:12;6.13;;;3.58;;
1467;SDS011;727;48.892;9.544;2023-12-20T13:05:40;4.00;;;3.13;;
1467;SDS011;727;48.892;9.544;2023-12-20T13:08:07;7.30;;;3.95;;
1467;SDS011;727;48.892;9.544;2023-12-20T13:10:34;4.78;;;3.22;;
1467;SDS011;727;48.892;9.544;2023-12-20T13:13:01;6.53;;;3.75;;
1467;SDS011;727;48.892;9.544;2023-12-20T13:15:29;6.18;;;2.83;;
1467;SDS011;727;48.892;9.544;2023-12-20T13:17:56;9.10;;;3.60;;
1467;SDS011;727;48.892;9.544;2023-12-20T13:20:23;9.05;;;6.38;;
1467;SDS011;727;48.892;9.544;2023-12-20T13:22:52;13.35;;;5.00;;
1467;SDS011;727;48.892;9.544;2023-12-20T13:25:18;9.13;;;4.53;;
1467;SDS011;727;48.892;9.544;2023-12-20T13:27:45;4.38;;;2.55;;
1467;SDS011;727;48.892;9.544;2023-12-20T13:30:12;10.73;;;2.95;;
1467;SDS011;727;48.892;9.544;2023-12-20T13:32:39;4.80;;;3.33;;
1467;SDS011;727;48.892;9.544;2023-12-20T13:35:06;5.60;;;3.00;;
1467;SDS011;727;48.892;9.544;2023-12-20T13:37:33;5.22;;;2.80;;
1467;SDS011;727;48.892;9.544;2023-12-20T13:40:02;4.32;;;2.38;;
1467;SDS011;727;48.892;9.544;2023-12-20T13:42:29;4.05;;;2.65;;
1467;SDS011;727;48.892;9.544;2023-12-20T13:44:56;2.17;;;1.95;;
1467;SDS011;727;48.892;9.544;2023-12-20T13:47:23;7.38;;;2.20;;
1467;SDS011;727;48.892;9.544;2023-12-20T13:49:49;6.00;;;2.38;;
1467;SDS011;727;48.892;9.544;2023-12-20T13:52:16;7.43;;;2.80;;
1467;SDS011;727;48.892;9.544;2023-12-20T13:54:43;6.07;;;3.67;;
1467;SDS011;727;48.892;9.544;2023-12-20T13:57:15;6.13;;;2.80;;
1467;SDS011;727;48.892;9.544;2023-12-20T13:59:42;3.85;;;3.25;;
1467;SDS011;727;48.892;9.544;2023-12-20T14:02:10;6.65;;;3.00;;
1467;SDS011;727;48.892;9.544;2023-12-20T14:04:36;7.20;;;2.70;;
1467;SDS011;727;48.892;9.544;2023-12-20T14:07:04;5.50;;;2.40;;
1467;SDS011;727;48.892;9.544;2023-12-20T14:09:32;5.20;;;2.10;;
1467;SDS011;727;48.892;9.544;2023-12-20T14:11:59;7.15;;;2.75;;
1467;SDS011;727;48.892;9.544;2023-12-20T14:14:27;10.63;;;4.45;;
1467;SDS011;727;48.892;9.544;2023-12-20T14:16:54;10.82;;;4.18;;
1467;SDS011;727;48.892;9.544;2023-12-20T14:19:21;5.75;;;3.80;;
1467;SDS011;727;48.892;9.544;2023-12-20T14:21:48;3.63;;;3.00;;
1467;SDS011;727;48.892;9.544;2023-12-20T14:24:15;8.88;;;2.92;;
1467;SDS011;727;48.892;9.544;2023-12-20T14:26:41;6.47;;;2.80;;
1467;SDS011;727;48.892;9.544;2023-12-20T14:29:08;10.35;;;6.05;;
1467;SDS011;727;48.892;9.544;2023-12-20T14:31:36;10.40;;;6.63;;
1467;SDS011;727;48.892;9.544;2023-12-20T14:34:03;7.10;;;4.07;;
1467;SDS011;727;48.892;9.544;2023-12-20T14:36:30;5.50;;;5.00;;
1467;SDS011;727;48.892;9.544;2023-12-20T14:38:57;5.07;;;4.65;;
1467;SDS011;727;48.892;9.544;2023-12-20T14:41:24;7.35;;;4.60;;
1467;SDS011;727;48.892;9.544;2023-12-20T14:43:51;8.95;;;6.18;;
1467;SDS011;727;48.892;9.544;2023-12-20T14:46:18;10.63;;;4.28;;
1467;SDS011;727;48.892;9.544;2023-12-20T14:48:46;6.88;;;2.97;;
1467;SDS011;727;48.892;9.544;2023-12-20T14:51:14;7.32;;;4.78;;
1467;SDS011;727;48.892;9.544;2023-12-20T14:53:41;8.52;;;3.85;;
1467;SDS011;727;48.892;9.544;2023-12-20T14:56:08;3.95;;;3.47;;
1467;SDS011;727;48.892;9.544;2023-12-20T14:58:34;6.15;;;4.35;;
1467;SDS011;727;48.892;9.544;2023-12-20T15:01:02;5.18;;;3.38;;
1467;SDS011;727;48.892;9.544;2023-12-20T15:03:29;13.07;;;4.00;;
1467;SDS011;727;48.892;9.544;2023-12-20T15:05:57;10.57;;;4.80;;
1467;SDS011;727;48.892;9.544;2023-12-20T15:08:24;6.93;;;3.60;;
1467;SDS011;727;48.892;9.544;2023-12-20T15:10:53;8.98;;;5.53;;
1467;SDS011;727;48.892;9.544;2023-12-20T15:13:20;8.85;;;7.15;;
1467;SDS011;727;48.892;9.544;2023-12-20T15:15:46;10.63;;;9.63;;
1467;SDS011;727;48.892;9.544;2023-12-20T15:18:13;17.45;;;15.75;;
1467;SDS011;727;48.892;9.544;2023-12-20T15:20:40;21.23;;;19.33;;
1467;SDS011;727;48.892;9.544;2023-12-20T15:23:10;18.35;;;16.08;;
1467;SDS011;727;48.892;9.544;2023-12-20T15:25:37;15.35;;;12.40;;
1467;SDS011;727;48.892;9.544;2023-12-20T15:28:03;17.27;;;14.20;;